TAM3924 SBSP-SBRJ
Flight info
| Callsign | TAM3924 |
|---|---|
| Flight time | 0h 36m |
| Altitude | 25000 |
| Route | NIBRU UZ171 KEVUN |
| Aircraft | A319/M-SDE3FGHIRWY/LB1 |
Departure
| Time | 2026-05-07 20:41 |
|---|---|
| Airport | Congonhas–Deputado Freitas Nobre Airport (SBSP) |
Arrival
| Time | 2026-05-07 21:17 |
|---|---|
| Airport | Santos Dumont Airport (SBRJ) |
| Time | Latitude | Longitude | Altitude | Speed | Heading |
|---|---|---|---|---|---|
| 2026-05-07 20:26 | -23.62571 | -46.65927 | 2601 ft | 0 kts | 237° |
| 2026-05-07 20:31 | -23.62567 | -46.65920 | 2601 ft | 3 kts | 237° |
| 2026-05-07 20:31 | -23.62557 | -46.65903 | 2601 ft | 3 kts | 214° |
| 2026-05-07 20:31 | -23.62540 | -46.65895 | 2601 ft | 3 kts | 173° |
| 2026-05-07 20:31 | -23.62525 | -46.65899 | 2601 ft | 0 kts | 149° |
| 2026-05-07 20:34 | -23.62541 | -46.65890 | 2601 ft | 5 kts | 149° |
| 2026-05-07 20:34 | -23.62573 | -46.65846 | 2601 ft | 10 kts | 124° |
| 2026-05-07 20:35 | -23.62629 | -46.65780 | 2602 ft | 14 kts | 146° |
| 2026-05-07 20:35 | -23.62729 | -46.65711 | 2603 ft | 20 kts | 148° |
| 2026-05-07 20:35 | -23.62845 | -46.65631 | 2603 ft | 15 kts | 147° |
| 2026-05-07 20:35 | -23.62935 | -46.65568 | 2603 ft | 17 kts | 148° |
| 2026-05-07 20:36 | -23.63029 | -46.65520 | 2603 ft | 13 kts | 175° |
| 2026-05-07 20:36 | -23.63109 | -46.65485 | 2602 ft | 10 kts | 147° |
| 2026-05-07 20:36 | -23.63182 | -46.65433 | 2602 ft | 15 kts | 147° |
| 2026-05-07 20:36 | -23.63286 | -46.65362 | 2602 ft | 21 kts | 148° |
| 2026-05-07 20:37 | -23.63412 | -46.65273 | 2602 ft | 19 kts | 147° |
| 2026-05-07 20:37 | -23.63474 | -46.65231 | 2601 ft | 0 kts | 147° |
| 2026-05-07 20:38 | -23.63483 | -46.65225 | 2601 ft | 0 kts | 147° |
| 2026-05-07 20:39 | -23.63492 | -46.65218 | 2601 ft | 4 kts | 147° |
| 2026-05-07 20:39 | -23.63509 | -46.65189 | 2600 ft | 6 kts | 104° |
| 2026-05-07 20:39 | -23.63473 | -46.65137 | 2599 ft | 13 kts | 38° |
| 2026-05-07 20:39 | -23.63424 | -46.65120 | 2601 ft | 3 kts | 327° |
| 2026-05-07 20:40 | -23.63420 | -46.65123 | 2602 ft | 0 kts | 325° |
| 2026-05-07 20:40 | -23.63311 | -46.65201 | 2608 ft | 54 kts | 327° |
| 2026-05-07 20:40 | -23.62793 | -46.65559 | 2608 ft | 121 kts | 327° |
| 2026-05-07 20:40 | -23.61931 | -46.66150 | 2757 ft | 161 kts | 329° |
| 2026-05-07 20:41 | -23.60974 | -46.66821 | 3401 ft | 166 kts | 328° |
| 2026-05-07 20:41 | -23.59861 | -46.67296 | 3679 ft | 186 kts | 356° |
| 2026-05-07 20:41 | -23.58601 | -46.66723 | 3871 ft | 217 kts | 43° |
| 2026-05-07 20:41 | -23.57996 | -46.65155 | 4370 ft | 241 kts | 83° |
| 2026-05-07 20:42 | -23.58018 | -46.63239 | 4854 ft | 265 kts | 87° |
| 2026-05-07 20:42 | -23.58017 | -46.61172 | 5505 ft | 278 kts | 86° |
| 2026-05-07 20:42 | -23.57998 | -46.59042 | 6402 ft | 283 kts | 85° |
| 2026-05-07 20:42 | -23.57975 | -46.56886 | 7312 ft | 286 kts | 85° |
| 2026-05-07 20:43 | -23.57957 | -46.54701 | 8178 ft | 290 kts | 86° |
| 2026-05-07 20:43 | -23.57942 | -46.52490 | 9097 ft | 293 kts | 86° |
| 2026-05-07 20:43 | -23.57930 | -46.50257 | 10012 ft | 297 kts | 86° |
| 2026-05-07 20:43 | -23.57918 | -46.47938 | 10478 ft | 317 kts | 86° |
| 2026-05-07 20:44 | -23.57906 | -46.45484 | 11059 ft | 328 kts | 86° |
| 2026-05-07 20:44 | -23.57900 | -46.42991 | 11813 ft | 331 kts | 87° |
| 2026-05-07 20:44 | -23.57895 | -46.40467 | 12566 ft | 334 kts | 87° |
| 2026-05-07 20:44 | -23.57890 | -46.37922 | 13285 ft | 337 kts | 87° |
| 2026-05-07 20:45 | -23.57885 | -46.35361 | 13963 ft | 340 kts | 88° |
| 2026-05-07 20:45 | -23.57879 | -46.32775 | 14559 ft | 343 kts | 88° |
| 2026-05-07 20:45 | -23.57871 | -46.30163 | 15138 ft | 346 kts | 88° |
| 2026-05-07 20:45 | -23.57861 | -46.27523 | 15706 ft | 350 kts | 88° |
| 2026-05-07 20:46 | -23.57848 | -46.24887 | 16264 ft | 354 kts | 87° |
| 2026-05-07 20:46 | -23.57831 | -46.22186 | 16829 ft | 358 kts | 87° |
| 2026-05-07 20:46 | -23.57813 | -46.19455 | 17390 ft | 362 kts | 87° |
| 2026-05-07 20:46 | -23.57795 | -46.16698 | 17950 ft | 366 kts | 88° |
| 2026-05-07 20:47 | -23.57780 | -46.13908 | 18502 ft | 370 kts | 88° |
| 2026-05-07 20:47 | -23.57764 | -46.11091 | 18975 ft | 374 kts | 88° |
| 2026-05-07 20:47 | -23.57750 | -46.08238 | 19444 ft | 379 kts | 88° |
| 2026-05-07 20:47 | -23.57737 | -46.05349 | 19919 ft | 384 kts | 88° |
| 2026-05-07 20:48 | -23.57725 | -46.02424 | 20410 ft | 388 kts | 88° |
| 2026-05-07 20:48 | -23.57712 | -45.99461 | 20898 ft | 393 kts | 89° |
| 2026-05-07 20:48 | -23.57698 | -45.96461 | 21370 ft | 398 kts | 89° |
| 2026-05-07 20:48 | -23.57683 | -45.93426 | 21863 ft | 403 kts | 89° |
| 2026-05-07 20:49 | -23.57664 | -45.90356 | 22357 ft | 407 kts | 89° |
| 2026-05-07 20:49 | -23.57638 | -45.87251 | 22843 ft | 412 kts | 89° |
| 2026-05-07 20:49 | -23.57610 | -45.84113 | 23314 ft | 417 kts | 89° |
| 2026-05-07 20:49 | -23.57586 | -45.80936 | 23749 ft | 422 kts | 89° |
| 2026-05-07 20:50 | -23.57565 | -45.77725 | 24172 ft | 425 kts | 90° |
| 2026-05-07 20:50 | -23.57544 | -45.74490 | 24642 ft | 428 kts | 90° |
| 2026-05-07 20:50 | -23.57520 | -45.71222 | 24903 ft | 436 kts | 90° |
| 2026-05-07 20:50 | -23.57493 | -45.67889 | 24976 ft | 442 kts | 90° |
| 2026-05-07 20:51 | -23.57465 | -45.64540 | 24992 ft | 442 kts | 90° |
| 2026-05-07 20:51 | -23.57437 | -45.61191 | 24997 ft | 442 kts | 90° |
| 2026-05-07 20:51 | -23.57410 | -45.57842 | 24985 ft | 442 kts | 90° |
| 2026-05-07 20:51 | -23.57380 | -45.54493 | 24986 ft | 442 kts | 90° |
| 2026-05-07 20:52 | -23.57350 | -45.51147 | 24989 ft | 441 kts | 90° |
| 2026-05-07 20:52 | -23.57282 | -45.47801 | 24990 ft | 442 kts | 86° |
| 2026-05-07 20:52 | -23.56815 | -45.44492 | 24997 ft | 442 kts | 77° |
| 2026-05-07 20:52 | -23.56114 | -45.41230 | 24997 ft | 442 kts | 77° |
| 2026-05-07 20:53 | -23.55417 | -45.37967 | 25004 ft | 442 kts | 77° |
| 2026-05-07 20:53 | -23.54563 | -45.34753 | 24994 ft | 442 kts | 72° |
| 2026-05-07 20:53 | -23.53593 | -45.31575 | 24992 ft | 442 kts | 71° |
| 2026-05-07 20:53 | -23.52584 | -45.28410 | 24992 ft | 442 kts | 70° |
| 2026-05-07 20:54 | -23.51554 | -45.25251 | 24989 ft | 443 kts | 70° |
| 2026-05-07 20:54 | -23.50536 | -45.22135 | 24992 ft | 443 kts | 70° |
| 2026-05-07 20:54 | -23.49514 | -45.18973 | 24988 ft | 442 kts | 70° |
| 2026-05-07 20:54 | -23.48501 | -45.15810 | 24988 ft | 442 kts | 70° |
| 2026-05-07 20:55 | -23.47493 | -45.12652 | 24985 ft | 442 kts | 71° |
| 2026-05-07 20:55 | -23.46487 | -45.09488 | 24983 ft | 442 kts | 71° |
| 2026-05-07 20:55 | -23.45482 | -45.06326 | 24983 ft | 442 kts | 71° |
| 2026-05-07 20:55 | -23.44477 | -45.03166 | 24981 ft | 442 kts | 71° |
| 2026-05-07 20:56 | -23.43469 | -45.00007 | 24981 ft | 442 kts | 70° |
| 2026-05-07 20:56 | -23.42456 | -44.96850 | 24981 ft | 442 kts | 70° |
| 2026-05-07 20:56 | -23.41441 | -44.93695 | 24981 ft | 442 kts | 70° |
| 2026-05-07 20:56 | -23.40424 | -44.90540 | 24972 ft | 442 kts | 70° |
| 2026-05-07 20:57 | -23.39406 | -44.87383 | 24985 ft | 442 kts | 70° |
| 2026-05-07 20:57 | -23.38389 | -44.84227 | 24978 ft | 442 kts | 70° |
| 2026-05-07 20:57 | -23.37376 | -44.81075 | 24978 ft | 442 kts | 70° |
| 2026-05-07 20:57 | -23.36362 | -44.77916 | 24987 ft | 442 kts | 70° |
| 2026-05-07 20:58 | -23.35347 | -44.74759 | 24985 ft | 442 kts | 70° |
| 2026-05-07 20:58 | -23.34330 | -44.71604 | 24985 ft | 442 kts | 70° |
| 2026-05-07 20:58 | -23.33311 | -44.68452 | 24975 ft | 441 kts | 70° |
| 2026-05-07 20:58 | -23.32293 | -44.65301 | 24975 ft | 441 kts | 70° |
| 2026-05-07 20:59 | -23.31277 | -44.62151 | 24976 ft | 441 kts | 70° |
| 2026-05-07 20:59 | -23.30260 | -44.59002 | 24977 ft | 441 kts | 70° |
| 2026-05-07 20:59 | -23.29254 | -44.55897 | 24974 ft | 441 kts | 70° |
| 2026-05-07 20:59 | -23.28236 | -44.52754 | 24942 ft | 440 kts | 70° |
| 2026-05-07 21:00 | -23.27218 | -44.49610 | 24195 ft | 445 kts | 70° |
| 2026-05-07 21:00 | -23.26188 | -44.46437 | 23577 ft | 444 kts | 70° |
| 2026-05-07 21:00 | -23.25165 | -44.43283 | 22945 ft | 440 kts | 70° |
| 2026-05-07 21:00 | -23.24153 | -44.40170 | 22396 ft | 434 kts | 70° |
| 2026-05-07 21:01 | -23.23154 | -44.37103 | 21859 ft | 428 kts | 70° |
| 2026-05-07 21:01 | -23.22168 | -44.34069 | 21332 ft | 423 kts | 70° |
| 2026-05-07 21:01 | -23.21193 | -44.31071 | 20807 ft | 418 kts | 70° |
| 2026-05-07 21:01 | -23.20228 | -44.28108 | 20271 ft | 414 kts | 70° |
| 2026-05-07 21:02 | -23.19268 | -44.25169 | 19722 ft | 410 kts | 70° |
| 2026-05-07 21:02 | -23.18318 | -44.22258 | 19166 ft | 407 kts | 70° |
| 2026-05-07 21:02 | -23.17377 | -44.19374 | 18607 ft | 403 kts | 70° |
| 2026-05-07 21:02 | -23.16446 | -44.16525 | 18010 ft | 399 kts | 70° |
| 2026-05-07 21:03 | -23.15522 | -44.13696 | 17440 ft | 393 kts | 69° |
| 2026-05-07 21:03 | -23.14615 | -44.10924 | 16844 ft | 387 kts | 69° |
| 2026-05-07 21:03 | -23.13720 | -44.08188 | 16281 ft | 381 kts | 69° |
| 2026-05-07 21:03 | -23.12839 | -44.05496 | 15724 ft | 375 kts | 69° |
| 2026-05-07 21:04 | -23.11970 | -44.02847 | 15168 ft | 369 kts | 69° |
| 2026-05-07 21:04 | -23.11115 | -44.00238 | 14615 ft | 364 kts | 69° |
| 2026-05-07 21:04 | -23.10273 | -43.97666 | 14077 ft | 359 kts | 69° |
| 2026-05-07 21:04 | -23.09439 | -43.95124 | 13506 ft | 355 kts | 69° |
| 2026-05-07 21:05 | -23.08624 | -43.92651 | 12960 ft | 350 kts | 69° |
| 2026-05-07 21:05 | -23.07814 | -43.90195 | 12487 ft | 344 kts | 69° |
| 2026-05-07 21:05 | -23.07017 | -43.87767 | 11967 ft | 339 kts | 68° |
| 2026-05-07 21:05 | -23.06226 | -43.85362 | 11450 ft | 336 kts | 68° |
| 2026-05-07 21:06 | -23.05444 | -43.82986 | 10933 ft | 334 kts | 68° |
| 2026-05-07 21:06 | -23.04667 | -43.80626 | 10492 ft | 329 kts | 68° |
| 2026-05-07 21:06 | -23.03916 | -43.78342 | 10375 ft | 314 kts | 68° |
| 2026-05-07 21:06 | -23.03195 | -43.76155 | 10243 ft | 302 kts | 67° |
| 2026-05-07 21:07 | -23.02493 | -43.74037 | 10028 ft | 295 kts | 67° |
| 2026-05-07 21:07 | -23.01804 | -43.71955 | 9970 ft | 293 kts | 67° |
| 2026-05-07 21:07 | -23.01114 | -43.69869 | 9703 ft | 295 kts | 67° |
| 2026-05-07 21:07 | -23.00421 | -43.67773 | 9285 ft | 294 kts | 67° |
| 2026-05-07 21:08 | -22.99730 | -43.65687 | 8866 ft | 294 kts | 67° |
| 2026-05-07 21:08 | -22.99045 | -43.63613 | 8520 ft | 291 kts | 66° |
| 2026-05-07 21:08 | -22.98363 | -43.61552 | 8170 ft | 288 kts | 66° |
| 2026-05-07 21:08 | -22.97683 | -43.59507 | 7776 ft | 287 kts | 66° |
| 2026-05-07 21:09 | -22.97007 | -43.57474 | 7359 ft | 288 kts | 66° |
| 2026-05-07 21:09 | -22.96332 | -43.55447 | 7090 ft | 283 kts | 66° |
| 2026-05-07 21:09 | -22.95672 | -43.53453 | 6572 ft | 281 kts | 66° |
| 2026-05-07 21:09 | -22.95019 | -43.51473 | 6126 ft | 277 kts | 66° |
| 2026-05-07 21:10 | -22.94320 | -43.49545 | 5796 ft | 271 kts | 63° |
| 2026-05-07 21:10 | -22.93577 | -43.47741 | 5607 ft | 252 kts | 60° |
| 2026-05-07 21:10 | -22.92861 | -43.46080 | 5312 ft | 242 kts | 60° |
| 2026-05-07 21:10 | -22.92145 | -43.44438 | 5042 ft | 237 kts | 60° |
| 2026-05-07 21:11 | -22.91461 | -43.42862 | 4794 ft | 224 kts | 60° |
| 2026-05-07 21:11 | -22.90826 | -43.41387 | 4531 ft | 210 kts | 60° |
| 2026-05-07 21:11 | -22.89632 | -43.38610 | 4048 ft | 199 kts | 60° |
| 2026-05-07 21:12 | -22.89052 | -43.37256 | 3804 ft | 196 kts | 62° |
| 2026-05-07 21:12 | -22.88490 | -43.35938 | 3571 ft | 188 kts | 62° |
| 2026-05-07 21:12 | -22.88015 | -43.34644 | 3354 ft | 181 kts | 67° |
| 2026-05-07 21:12 | -22.87607 | -43.33375 | 3138 ft | 175 kts | 67° |
| 2026-05-07 21:13 | -22.87215 | -43.32151 | 2933 ft | 169 kts | 69° |
| 2026-05-07 21:13 | -22.86834 | -43.30957 | 2728 ft | 165 kts | 69° |
| 2026-05-07 21:13 | -22.86458 | -43.29787 | 2561 ft | 164 kts | 68° |
| 2026-05-07 21:13 | -22.86082 | -43.28628 | 2369 ft | 162 kts | 68° |
| 2026-05-07 21:14 | -22.85709 | -43.27477 | 2165 ft | 162 kts | 69° |
| 2026-05-07 21:14 | -22.85490 | -43.26285 | 1966 ft | 163 kts | 90° |
| 2026-05-07 21:14 | -22.85658 | -43.25072 | 1756 ft | 162 kts | 96° |
| 2026-05-07 21:14 | -22.85830 | -43.23872 | 1546 ft | 161 kts | 97° |
| 2026-05-07 21:15 | -22.85998 | -43.22692 | 1319 ft | 155 kts | 97° |
| 2026-05-07 21:15 | -22.86153 | -43.21610 | 1117 ft | 137 kts | 97° |
| 2026-05-07 21:15 | -22.86294 | -43.20613 | 924 ft | 131 kts | 98° |
| 2026-05-07 21:15 | -22.86429 | -43.19651 | 783 ft | 128 kts | 99° |
| 2026-05-07 21:16 | -22.86564 | -43.18693 | 743 ft | 128 kts | 99° |
| 2026-05-07 21:16 | -22.86807 | -43.17761 | 728 ft | 129 kts | 117° |
| 2026-05-07 21:16 | -22.87360 | -43.17003 | 593 ft | 129 kts | 141° |
| 2026-05-07 21:16 | -22.88158 | -43.16601 | 451 ft | 127 kts | 166° |
| 2026-05-07 21:17 | -22.89023 | -43.16429 | 270 ft | 126 kts | 171° |
| 2026-05-07 21:17 | -22.89893 | -43.16361 | 134 ft | 125 kts | 176° |
| 2026-05-07 21:17 | -22.90743 | -43.16304 | 28 ft | 112 kts | 176° |
| 2026-05-07 21:17 | -22.91313 | -43.16265 | 20 ft | 40 kts | 176° |
| 2026-05-07 21:18 | -22.91484 | -43.16254 | 23 ft | 15 kts | 176° |
| 2026-05-07 21:18 | -22.91523 | -43.16307 | 20 ft | 11 kts | 268° |
| 2026-05-07 21:18 | -22.91523 | -43.16367 | 20 ft | 6 kts | 275° |
| 2026-05-07 21:18 | -22.91505 | -43.16396 | 23 ft | 3 kts | 315° |
| 2026-05-07 21:19 | -22.91490 | -43.16412 | 22 ft | 3 kts | 315° |
| 2026-05-07 21:19 | -22.91471 | -43.16433 | 22 ft | 5 kts | 315° |
| 2026-05-07 21:19 | -22.91454 | -43.16450 | 22 ft | 3 kts | 316° |
| 2026-05-07 21:19 | -22.91432 | -43.16473 | 22 ft | 5 kts | 318° |
| 2026-05-07 21:20 | -22.91403 | -43.16503 | 22 ft | 5 kts | 293° |
| 2026-05-07 21:20 | -22.91417 | -43.16526 | 22 ft | 2 kts | 223° |
| 2026-05-07 21:20 | -22.91427 | -43.16536 | 22 ft | 1 kts | 224° |
| 2026-05-07 21:20 | -22.91432 | -43.16542 | 22 ft | 0 kts | 225° |